Terminal Aerodrome Forecast
Issued by NWS

Home | Current Version | Previous Version | Graphics & Text | Print | Product List | Glossary On
Versions: 1 2 3 4 5 6 7 8 9 10 11 12 13 14 15 16 17 18 19 20
427
FTUS43 KGRB 282013 AAB
TAFAUW
TAF AMD
KAUW 282013Z 2820/2918 09010KT P6SM VCSH SCT040 OVC060
      TEMPO 2820/2822 -SHRA BKN035 OVC050
     FM290000 06007KT P6SM VCSH SCT040 OVC060
     FM290900 03005KT P6SM BKN070=

USA.gov is the U.S. government's official web portal to all federal, state and local government web resources and services.